Regina Baltica — P3FV4 — position and weather

sailwx.info

Track history (hours):
 
Tides and Currents Weather Stations Pressure Air Temp Water Temp Dewpoint Dewpoint Depression Visibility Wind Speed Wind Dir Waves Ship Positions

Regina Baltica

Last reported at 2018-Feb-21 18:01 UTC. Time now 2018-Feb-22 22:52 UTC.
Position N 39°22' W 000°12'.

Length 145 m; draft 5.6 m.

Type: Ship. MMSI: 210976000.

Date/timePositionNaut miles runAvg speedWind from/ knotsBaromVisibWave heightAir tempDewpointWater temp
2018-Feb-21 18:01N 39°22' W 000°12'015.3
2018-Feb-21 18:00N 39°22' W 000°13'611.9
2018-Feb-21 17:30N 39°26' W 000°18'1 2.1
2018-Feb-21 16:53N 39°27' W 000°19'0 0.0
2018-Feb-21 16:29N 39°27' W 000°19'0 0.0
2018-Feb-21 15:59N 39°27' W 000°19'0 0.0
2018-Feb-21 15:27N 39°27' W 000°19'0 0.0
2018-Feb-21 14:53N 39°27' W 000°19'0 0.0
2018-Feb-21 14:23N 39°27' W 000°19'0 0.0
2018-Feb-21 14:00N 39°27' W 000°19'0 0.0
2018-Feb-21 13:28N 39°27' W 000°19'0 0.0
2018-Feb-21 12:56N 39°27' W 000°19'0 0.0
2018-Feb-21 12:29N 39°27' W 000°19'0 0.0
2018-Feb-21 12:00N 39°27' W 000°19'0 0.0
2018-Feb-21 11:26N 39°27' W 000°19'0 0.0
2018-Feb-21 10:53N 39°27' W 000°19'0 0.0
2018-Feb-21 10:28N 39°27' W 000°19'0 0.4
2018-Feb-21 10:00N 39°27' W 000°19'15612.6
2018-Feb-20 21:36N 36°53' E 000°10'216.3
2018-Feb-20 21:30N 36°51' E 000°10'816.2
2018-Feb-20 21:00N 36°43' E 000°10'155 5.8
2018-Feb-19 18:26N 39°18' W 000°08'716.5
2018-Feb-19 18:00N 39°23' W 000°14'510.2
2018-Feb-19 17:29N 39°27' W 000°19'0 0.4
2018-Feb-19 17:00N 39°27' W 000°19'0 0.0
2018-Feb-19 16:25N 39°27' W 000°19'0 0.0
2018-Feb-19 15:56N 39°27' W 000°19'0 0.0
2018-Feb-19 15:22N 39°27' W 000°19'0 0.0
2018-Feb-19 14:52N 39°27' W 000°19'0 0.0
2018-Feb-19 14:19N 39°27' W 000°19'0 0.0
2018-Feb-19 13:56N 39°27' W 000°19'0 0.0
2018-Feb-19 13:28N 39°27' W 000°19'0 0.0
2018-Feb-19 12:53N 39°27' W 000°19'0 0.0
2018-Feb-19 12:29N 39°27' W 000°19'0 0.0
2018-Feb-19 11:55N 39°27' W 000°19'0 0.0
2018-Feb-19 11:25N 39°27' W 000°19'0 0.0
2018-Feb-19 10:56N 39°27' W 000°19'0 0.0
2018-Feb-19 10:30N 39°27' W 000°19'0 0.0
2018-Feb-19 09:56N 39°27' W 000°19'0 0.0
2018-Feb-19 09:30N 39°27' W 000°19'0 0.0
2018-Feb-19 08:56N 39°27' W 000°19'0 0.9
2018-Feb-19 08:30N 39°27' W 000°19'6 0.2
2018-Feb-17 18:03N 39°23' W 000°13'115.2
2018-Feb-17 17:59N 39°24' W 000°14'510.4
2018-Feb-17 17:30N 39°27' W 000°19'0 0.8
2018-Feb-17 17:00N 39°27' W 000°19'0 0.0
2018-Feb-17 16:27N 39°27' W 000°19'0 0.0
2018-Feb-17 16:00N 39°27' W 000°19'0 0.0
2018-Feb-17 15:28N 39°27' W 000°19'0 0.0
2018-Feb-17 14:55N 39°27' W 000°19'0 0.0
2018-Feb-17 14:27N 39°27' W 000°19'0 0.0
2018-Feb-17 13:58N 39°27' W 000°19'0 0.0
2018-Feb-17 13:28N 39°27' W 000°19'0 0.0
2018-Feb-17 12:58N 39°27' W 000°19'0 0.0
2018-Feb-17 12:30N 39°27' W 000°19'0 0.0
2018-Feb-17 12:00N 39°27' W 000°19'0 0.0
2018-Feb-17 11:28N 39°27' W 000°19'0 0.0
2018-Feb-17 10:55N 39°27' W 000°19'0 0.0
2018-Feb-17 10:30N 39°27' W 000°19'0 0.0
2018-Feb-17 09:59N 39°27' W 000°19'0 0.0
2018-Feb-17 09:30N 39°27' W 000°19'0 0.0
2018-Feb-17 08:59N 39°27' W 000°19'0 0.0
2018-Feb-17 08:29N 39°27' W 000°19'0 0.9
2018-Feb-17 08:00N 39°27' W 000°19'8014.2
2018-Feb-17 02:24N 38°13' E 000°20'3916.1
2018-Feb-16 23:59N 37°35' E 000°16'1315.9
2018-Feb-16 23:11N 37°22' E 000°14'816.3
2018-Feb-16 22:42N 37°14' E 000°12'316.4
2018-Feb-16 22:29N 37°11' E 000°12'1416.7
2018-Feb-16 21:38N 36°56' E 000°09'216.9
2018-Feb-16 21:30N 36°54' E 000°09'14 0.9
2018-Feb-16 04:49N 36°40' E 000°08'515.8
2018-Feb-16 04:30N 36°45' E 000°08'815.8
2018-Feb-16 03:59N 36°53' E 000°09'815.5
2018-Feb-16 03:29N 37°01' E 000°09'715.6
2018-Feb-16 03:01N 37°09' E 000°10'815.9
2018-Feb-16 02:31N 37°16' E 000°11'816.2
2018-Feb-16 02:01N 37°25' E 000°12'816.3
2018-Feb-16 01:31N 37°33' E 000°13'3516.0
2018-Feb-15 23:21N 38°07' E 000°16'7414.8
2018-Feb-15 18:21N 39°18' W 000°09'515.0
2018-Feb-15 18:00N 39°23' W 000°13'612.1
2018-Feb-15 17:31N 39°27' W 000°19'1 1.0
2018-Feb-15 16:55N 39°27' W 000°19'0 0.0
2018-Feb-15 16:27N 39°27' W 000°19'0 0.0
2018-Feb-15 15:53N 39°27' W 000°19'0 0.0
2018-Feb-15 15:24N 39°27' W 000°19'0 0.0
2018-Feb-15 14:58N 39°27' W 000°19'0 0.0
2018-Feb-15 14:25N 39°27' W 000°19'0 0.0
2018-Feb-15 13:59N 39°27' W 000°19'0 0.0
2018-Feb-15 13:29N 39°27' W 000°19'0 0.0
2018-Feb-15 12:53N 39°27' W 000°19'0 0.0
2018-Feb-15 12:30N 39°27' W 000°19'0 0.0
2018-Feb-15 11:59N 39°27' W 000°19'0 0.0
2018-Feb-15 11:24N 39°27' W 000°19'0 0.0
2018-Feb-15 10:55N 39°27' W 000°19'0 0.0
2018-Feb-15 10:28N 39°27' W 000°19'0 0.0
2018-Feb-15 09:58N 39°27' W 000°19'0 0.0
2018-Feb-15 09:28N 39°27' W 000°19'0 0.0
2018-Feb-15 08:55N 39°27' W 000°19'0 0.3
2018-Feb-15 08:30N 39°27' W 000°19'6 0.2
2018-Feb-13 17:57N 39°23' W 000°13'613.0
2018-Feb-13 17:30N 39°27' W 000°19'1 1.4
2018-Feb-13 17:00N 39°27' W 000°19'0 0.0
2018-Feb-13 16:30N 39°27' W 000°19'0 0.0
2018-Feb-13 15:59N 39°27' W 000°19'0 0.0
2018-Feb-13 15:27N 39°27' W 000°19'0 0.0
2018-Feb-13 14:59N 39°27' W 000°19'0 0.0
2018-Feb-13 14:30N 39°27' W 000°19'0 0.0
2018-Feb-13 14:00N 39°27' W 000°19'0 0.0
2018-Feb-13 13:29N 39°27' W 000°19'0 0.0
2018-Feb-13 13:00N 39°27' W 000°19'0 0.0
2018-Feb-13 12:30N 39°27' W 000°19'0 0.0
2018-Feb-13 11:58N 39°27' W 000°19'0 0.0
2018-Feb-13 11:28N 39°27' W 000°19'0 0.0
2018-Feb-13 10:58N 39°27' W 000°19'0 0.0
2018-Feb-13 10:29N 39°27' W 000°19'0 0.0
2018-Feb-13 09:57N 39°27' W 000°19'0 0.0
2018-Feb-13 09:30N 39°27' W 000°19'0 0.0
2018-Feb-13 08:58N 39°27' W 000°19'0 0.5
2018-Feb-13 08:30N 39°27' W 000°19'124 4.1
2018-Feb-12 02:03N 37°26' E 000°12'115.4
2018-Feb-12 02:00N 37°27' E 000°12'11614.9
2018-Feb-11 18:13N 39°21' W 000°12'  
Track history (hours):
 
Tides and Currents Weather Stations Pressure Air Temp Water Temp Dewpoint Dewpoint Depression Visibility Wind Speed Wind Dir Waves Ship Positions

Regina Baltica

Last reported at 2018-Feb-21 18:01 UTC. Time now 2018-Feb-22 22:52 UTC.
Position N 39°22' W 000°12'.

Length 145 m; draft 5.6 m.

Type: Ship. MMSI: 210976000.

Date/timePositionNaut miles runAvg speedWind from/ knotsBaromVisibWave heightAir tempDewpointWater temp
2018-Feb-21 18:01N 39°22' W 000°12'015.3
2018-Feb-21 18:00N 39°22' W 000°13'611.9
2018-Feb-21 17:30N 39°26' W 000°18'1 2.1
2018-Feb-21 16:53N 39°27' W 000°19'0 0.0
2018-Feb-21 16:29N 39°27' W 000°19'0 0.0
2018-Feb-21 15:59N 39°27' W 000°19'0 0.0
2018-Feb-21 15:27N 39°27' W 000°19'0 0.0
2018-Feb-21 14:53N 39°27' W 000°19'0 0.0
2018-Feb-21 14:23N 39°27' W 000°19'0 0.0
2018-Feb-21 14:00N 39°27' W 000°19'0 0.0
2018-Feb-21 13:28N 39°27' W 000°19'0 0.0
2018-Feb-21 12:56N 39°27' W 000°19'0 0.0
2018-Feb-21 12:29N 39°27' W 000°19'0 0.0
2018-Feb-21 12:00N 39°27' W 000°19'0 0.0
2018-Feb-21 11:26N 39°27' W 000°19'0 0.0
2018-Feb-21 10:53N 39°27' W 000°19'0 0.0
2018-Feb-21 10:28N 39°27' W 000°19'0 0.4
2018-Feb-21 10:00N 39°27' W 000°19'15612.6
2018-Feb-20 21:36N 36°53' E 000°10'216.3
2018-Feb-20 21:30N 36°51' E 000°10'816.2
2018-Feb-20 21:00N 36°43' E 000°10'155 5.8
2018-Feb-19 18:26N 39°18' W 000°08'716.5
2018-Feb-19 18:00N 39°23' W 000°14'510.2
2018-Feb-19 17:29N 39°27' W 000°19'0 0.4
2018-Feb-19 17:00N 39°27' W 000°19'0 0.0
2018-Feb-19 16:25N 39°27' W 000°19'0 0.0
2018-Feb-19 15:56N 39°27' W 000°19'0 0.0
2018-Feb-19 15:22N 39°27' W 000°19'0 0.0
2018-Feb-19 14:52N 39°27' W 000°19'0 0.0
2018-Feb-19 14:19N 39°27' W 000°19'0 0.0
2018-Feb-19 13:56N 39°27' W 000°19'0 0.0
2018-Feb-19 13:28N 39°27' W 000°19'0 0.0
2018-Feb-19 12:53N 39°27' W 000°19'0 0.0
2018-Feb-19 12:29N 39°27' W 000°19'0 0.0
2018-Feb-19 11:55N 39°27' W 000°19'0 0.0
2018-Feb-19 11:25N 39°27' W 000°19'0 0.0
2018-Feb-19 10:56N 39°27' W 000°19'0 0.0
2018-Feb-19 10:30N 39°27' W 000°19'0 0.0
2018-Feb-19 09:56N 39°27' W 000°19'0 0.0
2018-Feb-19 09:30N 39°27' W 000°19'0 0.0
2018-Feb-19 08:56N 39°27' W 000°19'0 0.9
2018-Feb-19 08:30N 39°27' W 000°19'6 0.2
2018-Feb-17 18:03N 39°23' W 000°13'115.2
2018-Feb-17 17:59N 39°24' W 000°14'510.4
2018-Feb-17 17:30N 39°27' W 000°19'0 0.8
2018-Feb-17 17:00N 39°27' W 000°19'0 0.0
2018-Feb-17 16:27N 39°27' W 000°19'0 0.0
2018-Feb-17 16:00N 39°27' W 000°19'0 0.0
2018-Feb-17 15:28N 39°27' W 000°19'0 0.0
2018-Feb-17 14:55N 39°27' W 000°19'0 0.0
2018-Feb-17 14:27N 39°27' W 000°19'0 0.0
2018-Feb-17 13:58N 39°27' W 000°19'0 0.0
2018-Feb-17 13:28N 39°27' W 000°19'0 0.0
2018-Feb-17 12:58N 39°27' W 000°19'0 0.0
2018-Feb-17 12:30N 39°27' W 000°19'0 0.0
2018-Feb-17 12:00N 39°27' W 000°19'0 0.0
2018-Feb-17 11:28N 39°27' W 000°19'0 0.0
2018-Feb-17 10:55N 39°27' W 000°19'0 0.0
2018-Feb-17 10:30N 39°27' W 000°19'0 0.0
2018-Feb-17 09:59N 39°27' W 000°19'0 0.0
2018-Feb-17 09:30N 39°27' W 000°19'0 0.0
2018-Feb-17 08:59N 39°27' W 000°19'0 0.0
2018-Feb-17 08:29N 39°27' W 000°19'0 0.9
2018-Feb-17 08:00N 39°27' W 000°19'8014.2
2018-Feb-17 02:24N 38°13' E 000°20'3916.1
2018-Feb-16 23:59N 37°35' E 000°16'1315.9
2018-Feb-16 23:11N 37°22' E 000°14'816.3
2018-Feb-16 22:42N 37°14' E 000°12'316.4
2018-Feb-16 22:29N 37°11' E 000°12'1416.7
2018-Feb-16 21:38N 36°56' E 000°09'216.9
2018-Feb-16 21:30N 36°54' E 000°09'14 0.9
2018-Feb-16 04:49N 36°40' E 000°08'515.8
2018-Feb-16 04:30N 36°45' E 000°08'815.8
2018-Feb-16 03:59N 36°53' E 000°09'815.5
2018-Feb-16 03:29N 37°01' E 000°09'715.6
2018-Feb-16 03:01N 37°09' E 000°10'815.9
2018-Feb-16 02:31N 37°16' E 000°11'816.2
2018-Feb-16 02:01N 37°25' E 000°12'816.3
2018-Feb-16 01:31N 37°33' E 000°13'3516.0
2018-Feb-15 23:21N 38°07' E 000°16'7414.8
2018-Feb-15 18:21N 39°18' W 000°09'515.0
2018-Feb-15 18:00N 39°23' W 000°13'612.1
2018-Feb-15 17:31N 39°27' W 000°19'1 1.0
2018-Feb-15 16:55N 39°27' W 000°19'0 0.0
2018-Feb-15 16:27N 39°27' W 000°19'0 0.0
2018-Feb-15 15:53N 39°27' W 000°19'0 0.0
2018-Feb-15 15:24N 39°27' W 000°19'0 0.0
2018-Feb-15 14:58N 39°27' W 000°19'0 0.0
2018-Feb-15 14:25N 39°27' W 000°19'0 0.0
2018-Feb-15 13:59N 39°27' W 000°19'0 0.0
2018-Feb-15 13:29N 39°27' W 000°19'0 0.0
2018-Feb-15 12:53N 39°27' W 000°19'0 0.0
2018-Feb-15 12:30N 39°27' W 000°19'0 0.0
2018-Feb-15 11:59N 39°27' W 000°19'0 0.0
2018-Feb-15 11:24N 39°27' W 000°19'0 0.0
2018-Feb-15 10:55N 39°27' W 000°19'0 0.0
2018-Feb-15 10:28N 39°27' W 000°19'0 0.0
2018-Feb-15 09:58N 39°27' W 000°19'0 0.0
2018-Feb-15 09:28N 39°27' W 000°19'0 0.0
2018-Feb-15 08:55N 39°27' W 000°19'0 0.3
2018-Feb-15 08:30N 39°27' W 000°19'6 0.2
2018-Feb-13 17:57N 39°23' W 000°13'613.0
2018-Feb-13 17:30N 39°27' W 000°19'1 1.4
2018-Feb-13 17:00N 39°27' W 000°19'0 0.0
2018-Feb-13 16:30N 39°27' W 000°19'0 0.0
2018-Feb-13 15:59N 39°27' W 000°19'0 0.0
2018-Feb-13 15:27N 39°27' W 000°19'0 0.0
2018-Feb-13 14:59N 39°27' W 000°19'0 0.0
2018-Feb-13 14:30N 39°27' W 000°19'0 0.0
2018-Feb-13 14:00N 39°27' W 000°19'0 0.0
2018-Feb-13 13:29N 39°27' W 000°19'0 0.0
2018-Feb-13 13:00N 39°27' W 000°19'0 0.0
2018-Feb-13 12:30N 39°27' W 000°19'0 0.0
2018-Feb-13 11:58N 39°27' W 000°19'0 0.0
2018-Feb-13 11:28N 39°27' W 000°19'0 0.0
2018-Feb-13 10:58N 39°27' W 000°19'0 0.0
2018-Feb-13 10:29N 39°27' W 000°19'0 0.0
2018-Feb-13 09:57N 39°27' W 000°19'0 0.0
2018-Feb-13 09:30N 39°27' W 000°19'0 0.0
2018-Feb-13 08:58N 39°27' W 000°19'0 0.5
2018-Feb-13 08:30N 39°27' W 000°19'124 4.1
2018-Feb-12 02:03N 37°26' E 000°12'115.4
2018-Feb-12 02:00N 37°27' E 000°12'11614.9
2018-Feb-11 18:13N 39°21' W 000°12'  

Dump ship's entire track history